Time;durP1;ratioP1;P1;durP2;ratioP2;P2;SDS_P1;SDS_P2;PMS_P1;PMS_P2;Temp;Humidity;BMP_temperature;BMP_pressure;BME280_temperature;BME280_humidity;BME280_pressure;Samples;Min_cycle;Max_cycle;Signal;HPM_P1;HPM_P2
2022/02/17 08:53:17;;;;;;;6.63;1.47;;;;;;;11.78;54.47;97683.34;5149035;27;20557;-79
2022/02/17 08:55:45;;;;;;;6.77;1.20;;;;;;;13.27;51.72;97726.66;5131033;27;38961;-76
2022/02/17 08:58:12;;;;;;;3.80;1.23;;;;;;;15.34;46.24;97757.41;5130263;27;40637;-80
2022/02/17 09:00:40;;;;;;;4.87;1.23;;;;;;;15.60;44.91;97778.00;5130966;27;43724;-77
2022/02/17 09:03:11;;;;;;;4.97;1.13;;;;;;;15.06;45.80;97769.13;5149014;27;42417;-80
2022/02/17 09:05:39;;;;;;;3.03;1.10;;;;;;;14.44;47.04;97776.06;5146241;27;39912;-81
2022/02/17 09:08:09;;;;;;;5.13;1.27;;;;;;;14.15;48.78;97751.31;5148320;27;40962;-78
2022/02/17 09:10:38;;;;;;;4.60;0.90;;;;;;;14.05;48.55;97763.81;5130275;27;42092;-77
2022/02/17 09:13:06;;;;;;;2.83;1.10;;;;;;;14.10;48.44;97766.88;5130114;27;42339;-78
2022/02/17 09:15:35;;;;;;;3.83;1.30;;;;;;;13.88;49.33;97768.03;5148831;27;40114;-78
2022/02/17 09:18:02;;;;;;;6.97;1.30;;;;;;;13.77;50.12;97793.00;5129700;27;41921;-82
2022/02/17 09:20:30;;;;;;;5.83;1.70;;;;;;;14.21;47.68;97801.34;5147884;27;42906;-79
2022/02/17 09:22:58;;;;;;;3.73;1.20;;;;;;;14.27;47.72;97808.72;5147472;27;40726;-78
2022/02/17 09:25:25;;;;;;;6.53;1.40;;;;;;;14.31;48.17;97813.63;5130020;27;40320;-79
2022/02/17 09:27:54;;;;;;;5.87;1.43;;;;;;;14.20;47.16;97816.47;5147272;27;41793;-78
2022/02/17 09:30:22;;;;;;;3.70;1.27;;;;;;;14.02;48.44;97787.06;5148051;27;41761;-78
2022/02/17 09:32:50;;;;;;;4.37;1.10;;;;;;;13.94;48.21;97802.94;5146516;27;41150;-77
2022/02/17 09:35:17;;;;;;;6.80;1.67;;;;;;;13.93;48.47;97817.22;5148249;27;38824;-79
2022/02/17 09:37:44;;;;;;;4.63;1.37;;;;;;;13.84;47.85;97814.56;5129769;27;41085;-79
2022/02/17 09:40:12;;;;;;;3.60;1.37;;;;;;;13.85;48.20;97822.38;5147466;27;42926;-77
2022/02/17 09:42:41;;;;;;;3.90;1.27;;;;;;;14.01;47.43;97833.31;5147388;27;43314;-79
2022/02/17 09:45:11;;;;;;;7.67;1.70;;;;;;;13.82;47.84;97817.38;5148042;27;41167;-79
2022/02/17 09:47:40;;;;;;;5.53;1.70;;;;;;;13.53;47.67;97827.16;5146768;27;42682;-77
2022/02/17 09:50:09;;;;;;;1.60;1.00;;;;;;;13.37;48.43;97838.34;5148192;27;43783;-79
2022/02/17 09:52:38;;;;;;;5.63;1.63;;;;;;;13.25;50.04;97845.59;5147434;27;42257;-79
2022/02/17 09:55:06;;;;;;;6.07;1.10;;;;;;;13.11;50.71;97831.81;5147578;27;38844;-79
2022/02/17 09:57:36;;;;;;;4.47;0.90;;;;;;;13.01;50.44;97839.78;5147044;27;40866;-78
2022/02/17 10:00:05;;;;;;;6.73;1.30;;;;;;;12.97;50.00;97834.91;5145464;27;42464;-76
2022/02/17 10:02:40;;;;;;;5.47;1.67;;;;;;;12.94;50.26;97831.53;5144172;27;40994;-79
2022/02/17 10:05:11;;;;;;;6.60;2.43;;;;;;;12.95;50.03;97822.59;5135602;27;40680;-80
2022/02/17 10:07:42;;;;;;;5.20;1.20;;;;;;;12.83;49.13;97852.88;5116225;27;41913;-78
2022/02/17 10:10:14;;;;;;;7.07;1.33;;;;;;;12.97;48.77;97882.72;5132580;27;42638;-80
2022/02/17 10:12:53;;;;;;;7.63;2.07;;;;;;;13.08;48.39;97886.13;5134089;27;42165;-78
2022/02/17 10:15:28;;;;;;;3.20;0.97;;;;;;;13.20;49.17;97892.19;5133235;27;39898;-78
2022/02/17 10:18:03;;;;;;;3.10;1.27;;;;;;;13.52;48.80;97889.31;5134286;27;41767;-77
2022/02/17 10:20:52;;;;;;;7.80;2.50;;;;;;;13.50;47.93;97891.28;5115944;27;41914;-78
2022/02/17 10:23:20;;;;;;;2.63;1.20;;;;;;;14.02;47.99;97882.06;5115866;27;43157;-82
2022/02/17 10:26:02;;;;;;;4.70;1.33;;;;;;;16.70;43.68;97934.16;5135191;27;39900;-80
2022/02/17 10:28:33;;;;;;;4.17;1.20;;;;;;;17.15;41.26;97927.75;5130302;27;41542;-80
2022/02/17 10:31:00;;;;;;;4.03;1.13;;;;;;;19.44;38.75;97943.84;5116201;27;42737;-80
2022/02/17 10:33:44;;;;;;;2.17;1.13;;;;;;;20.16;36.01;97961.47;5132173;27;42958;-81
2022/02/17 10:36:12;;;;;;;9.20;1.30;;;;;;;20.80;33.73;97965.53;5115718;27;38719;-87
2022/02/17 10:38:43;;;;;;;3.87;1.73;;;;;;;20.71;33.02;98011.53;5134146;27;42949;-78
2022/02/17 10:41:12;;;;;;;5.60;1.30;;;;;;;19.08;34.63;98002.50;5133701;27;41766;-80
2022/02/17 10:43:40;;;;;;;3.63;1.23;;;;;;;18.09;36.24;97990.03;5114692;27;43933;-81
2022/02/17 10:46:10;;;;;;;3.50;1.23;;;;;;;17.69;37.83;97992.56;5133575;27;40873;-78
2022/02/17 10:48:45;;;;;;;3.33;1.20;;;;;;;17.13;38.80;97991.28;5133313;27;40876;-82
2022/02/17 10:51:15;;;;;;;4.03;1.20;;;;;;;16.65;39.94;97965.88;5133994;27;43890;-81
2022/02/17 10:53:45;;;;;;;4.20;1.43;;;;;;;16.64;39.87;97992.78;5117445;27;41090;-81
2022/02/17 10:56:14;;;;;;;4.00;1.10;;;;;;;16.37;41.61;97988.31;5116336;27;39950;-78
2022/02/17 10:58:46;;;;;;;4.83;1.63;;;;;;;16.26;41.83;97991.22;5136507;27;44416;-81
2022/02/17 11:01:15;;;;;;;5.00;1.37;;;;;;;15.69;42.45;97985.31;5134758;27;42868;-82
2022/02/17 11:03:43;;;;;;;3.80;1.43;;;;;;;15.38;43.55;97963.38;5116069;27;42088;-79
2022/02/17 11:06:13;;;;;;;6.73;2.00;;;;;;;14.90;44.61;97936.88;5133842;27;40935;-80
2022/02/17 11:08:43;;;;;;;3.27;0.93;;;;;;;14.82;44.97;97966.09;5132525;27;41664;-80
2022/02/17 11:11:13;;;;;;;3.03;1.70;;;;;;;14.88;44.91;97963.69;5133146;27;43014;-78
2022/02/17 11:13:44;;;;;;;2.90;1.43;;;;;;;14.83;45.46;97943.81;5134496;27;42855;-79
2022/02/17 11:16:15;;;;;;;4.47;1.20;;;;;;;14.63;45.35;97962.47;5131775;27;38580;-79
2022/02/17 11:18:44;;;;;;;4.80;2.00;;;;;;;14.49;45.55;97960.25;5132229;27;43165;-81
2022/02/17 11:21:15;;;;;;;3.47;1.20;;;;;;;16.57;43.31;97983.69;5132583;27;42573;-85
2022/02/17 11:23:43;;;;;;;4.33;1.20;;;;;;;19.55;37.82;98032.97;5114304;27;43456;-81
2022/02/17 11:26:20;;;;;;;3.53;1.17;;;;;;;21.53;34.44;98025.91;5132157;27;40168;-80
2022/02/17 11:28:47;;;;;;;3.60;1.10;;;;;;;22.75;31.99;98071.03;5103881;27;41479;-81
2022/02/17 11:31:15;;;;;;;4.20;1.47;;;;;;;24.22;29.39;98070.16;5114963;27;41911;-84
2022/02/17 11:33:54;;;;;;;5.20;1.37;;;;;;;25.13;28.35;98096.84;5132594;27;44632;-80
2022/02/17 11:36:32;;;;;;;5.67;1.20;;;;;;;24.34;29.23;98076.66;5114474;27;40182;-84
2022/02/17 11:39:05;;;;;;;3.93;1.20;;;;;;;23.61;29.35;98088.06;5133157;27;41724;-84
2022/02/17 11:41:35;;;;;;;4.37;1.50;;;;;;;22.00;31.63;98071.41;5132942;27;42111;-79
2022/02/17 11:44:13;;;;;;;5.77;1.57;;;;;;;20.74;32.73;98041.63;5131762;27;42760;-79
2022/02/17 11:46:53;;;;;;;3.43;1.17;;;;;;;20.86;33.54;98035.81;5131786;27;40986;-84
2022/02/17 11:49:44;;;;;;;2.60;1.27;;;;;;;21.84;31.29;98040.06;5129858;27;41551;-84
2022/02/17 11:52:14;;;;;;;3.50;1.30;;;;;;;21.46;32.13;98046.56;5113403;27;43435;-83
2022/02/17 11:54:42;;;;;;;4.17;1.10;;;;;;;20.66;32.92;98040.81;5133344;27;42595;-79
2022/02/17 11:57:34;;;;;;;3.23;0.83;;;;;;;20.80;33.03;98061.56;5132356;27;40038;-79
2022/02/17 12:00:28;;;;;;;4.20;1.33;;;;;;;20.04;34.23;98043.50;5130692;27;41681;-83
2022/02/17 12:02:57;;;;;;;1.97;1.37;;;;;;;19.11;35.51;98043.25;5103880;27;43153;-84
2022/02/17 12:05:25;;;;;;;7.60;1.50;;;;;;;18.56;36.48;98035.00;5131499;27;41003;-78
2022/02/17 12:08:24;;;;;;;4.90;1.13;;;;;;;17.94;37.63;98029.16;5114099;27;41287;-81
2022/02/17 12:10:54;;;;;;;3.60;1.17;;;;;;;18.09;37.17;98024.88;5132058;27;41245;-83
2022/02/17 12:13:30;;;;;;;4.00;0.93;;;;;;;18.86;34.99;98047.81;5131671;27;41918;-82
2022/02/17 12:15:58;;;;;;;1.90;1.17;;;;;;;20.54;33.40;98058.38;5114561;27;43478;-81
2022/02/17 12:18:26;;;;;;;3.77;1.37;;;;;;;22.86;29.77;98072.44;5130128;27;39792;-84
2022/02/17 12:21:00;;;;;;;3.37;1.23;;;;;;;25.39;26.14;98105.84;5115049;27;42653;-82
2022/02/17 12:23:29;;;;;;;6.43;1.83;;;;;;;27.41;23.53;98125.44;5114171;27;43122;-83
2022/02/17 12:25:57;;;;;;;5.30;1.60;;;;;;;29.01;22.25;98133.63;5113382;27;42396;-82
2022/02/17 12:28:35;;;;;;;5.20;1.23;;;;;;;30.16;21.52;98121.31;5131491;27;38716;-86
2022/02/17 12:31:02;;;;;;;5.27;1.50;;;;;;;27.88;22.72;98115.00;5130120;27;42440;-80
2022/02/17 12:33:32;;;;;;;5.97;1.80;;;;;;;27.44;23.07;98114.13;5129484;27;42601;-81
2022/02/17 12:36:10;;;;;;;7.03;1.53;;;;;;;27.30;23.46;98101.69;5114135;27;42525;-78
2022/02/17 12:38:40;;;;;;;4.07;2.07;;;;;;;26.91;23.81;98105.47;5127553;27;39953;-84
2022/02/17 12:41:10;;;;;;;8.77;1.53;;;;;;;26.82;24.48;98093.19;5114599;27;40472;-83
2022/02/17 12:43:39;;;;;;;3.53;1.50;;;;;;;26.88;24.81;98083.31;5114275;27;41559;-81
2022/02/17 12:46:10;;;;;;;6.03;1.70;;;;;;;27.73;24.32;98096.31;5132030;27;42208;-79
2022/02/17 12:48:40;;;;;;;4.57;1.50;;;;;;;27.21;24.49;98078.53;5131551;27;40575;-84
2022/02/17 12:51:08;;;;;;;4.60;1.30;;;;;;;25.31;26.90;98064.56;5131469;27;41841;-79
2022/02/17 12:53:48;;;;;;;5.97;1.30;;;;;;;24.21;28.92;98073.03;5113131;27;41501;-86
2022/02/17 12:56:21;;;;;;;5.93;2.17;;;;;;;24.72;28.49;98037.41;5114594;27;42136;-84
2022/02/17 12:58:49;;;;;;;3.53;1.00;;;;;;;23.61;29.62;98055.63;5130751;27;38694;-80
2022/02/17 13:01:25;;;;;;;3.63;1.20;;;;;;;23.37;30.38;98037.13;5130851;27;41945;-82
2022/02/17 13:03:54;;;;;;;6.27;1.53;;;;;;;24.57;28.72;98033.00;5114550;27;41836;-81
2022/02/17 13:06:25;;;;;;;5.10;1.27;;;;;;;25.31;27.13;98061.84;5130328;27;42714;-78
2022/02/17 13:08:56;;;;;;;3.77;1.10;;;;;;;24.62;27.71;98054.84;5128743;27;40899;-81
2022/02/17 13:11:27;;;;;;;6.87;1.23;;;;;;;23.23;29.15;98053.25;5113718;27;42397;-82
2022/02/17 13:14:05;;;;;;;5.40;1.30;;;;;;;22.08;30.66;98049.72;5113043;27;41949;-82
2022/02/17 13:16:34;;;;;;;6.87;1.50;;;;;;;21.14;32.37;98048.50;5093604;28;41199;-82
2022/02/17 13:19:01;;;;;;;1.97;0.93;;;;;;;20.08;33.47;98034.09;5093758;28;38970;-78
2022/02/17 13:21:29;;;;;;;3.77;1.00;;;;;;;19.17;35.78;98028.31;5126215;27;42872;-81
2022/02/17 13:24:13;;;;;;;5.33;0.73;;;;;;;18.27;37.14;98020.22;5113782;27;42085;-82
2022/02/17 13:26:41;;;;;;;2.03;1.10;;;;;;;17.64;37.79;98022.53;5113197;27;42455;-81
2022/02/17 13:29:13;;;;;;;3.63;1.17;;;;;;;17.19;39.15;98028.09;5130870;27;38752;-79
2022/02/17 13:31:41;;;;;;;3.70;1.47;;;;;;;16.88;40.22;98025.88;5113827;27;40940;-84
2022/02/17 13:34:11;;;;;;;2.50;0.87;;;;;;;16.43;41.83;98017.13;5130410;27;43793;-81
2022/02/17 13:36:42;;;;;;;4.07;1.10;;;;;;;16.13;42.50;98013.81;5129652;27;42224;-80
2022/02/17 13:39:16;;;;;;;3.07;1.20;;;;;;;15.73;43.29;97997.34;5133910;27;40304;-78
2022/02/17 13:42:03;;;;;;;3.73;0.93;;;;;;;15.34;44.98;97999.31;5131516;27;41695;-83
2022/02/17 13:44:31;;;;;;;4.03;1.17;;;;;;;15.07;45.88;98010.81;5132659;27;43452;-86
2022/02/17 13:46:59;;;;;;;2.70;1.10;;;;;;;14.78;47.17;98018.00;5116454;27;41998;-81
2022/02/17 13:49:27;;;;;;;3.57;1.20;;;;;;;14.42;48.96;98027.56;5116762;27;38785;-82
2022/02/17 13:51:55;;;;;;;4.67;1.17;;;;;;;14.06;52.94;98000.63;5133005;27;42001;-80
2022/02/17 13:54:24;;;;;;;2.30;0.60;;;;;;;14.31;53.41;97988.56;5134371;27;43328;-80
2022/02/17 13:56:52;;;;;;;2.60;1.00;;;;;;;13.98;51.28;98001.28;5133326;27;42107;-81
2022/02/17 13:59:26;;;;;;;5.53;0.70;;;;;;;14.12;50.52;98009.84;5134748;27;39894;-80
2022/02/17 14:01:54;;;;;;;3.00;0.63;;;;;;;13.73;51.29;97985.81;5131821;27;41652;-78
2022/02/17 14:04:29;;;;;;;2.83;0.80;;;;;;;13.63;51.99;98025.72;5134366;27;42844;-77
2022/02/17 14:06:58;;;;;;;1.77;0.83;;;;;;;13.30;52.25;98007.41;5115615;27;41202;-82
2022/02/17 14:09:30;;;;;;;1.13;0.53;;;;;;;13.17;52.70;98022.72;5134240;27;38520;-78
2022/02/17 14:11:57;;;;;;;2.50;1.30;;;;;;;13.10;53.66;98016.25;5132947;27;42397;-81
2022/02/17 14:14:25;;;;;;;2.47;1.03;;;;;;;13.02;53.96;98035.47;5135485;27;43530;-82
2022/02/17 14:16:53;;;;;;;3.07;0.77;;;;;;;12.91;54.45;98046.19;5132947;27;42099;-80
2022/02/17 14:19:21;;;;;;;6.03;0.90;;;;;;;12.80;53.73;98044.44;5135125;27;40044;-83
2022/02/17 14:21:49;;;;;;;4.80;0.90;;;;;;;12.68;53.62;98032.19;5133309;27;40680;-83
2022/02/17 14:24:16;;;;;;;5.00;1.13;;;;;;;12.61;54.25;98052.25;5112627;27;43085;-85
2022/02/17 14:26:45;;;;;;;3.20;0.67;;;;;;;12.57;53.45;98043.72;5115693;27;43066;-87
2022/02/17 14:29:14;;;;;;;2.50;1.27;;;;;;;12.50;54.28;98036.38;5134380;27;40154;-84
2022/02/17 14:31:41;;;;;;;3.97;1.80;;;;;;;12.42;53.07;98046.81;5115464;27;42457;-83
2022/02/17 14:34:10;;;;;;;2.23;0.60;;;;;;;12.36;53.61;98021.63;5133794;27;42784;-83
2022/02/17 14:36:37;;;;;;;3.87;1.10;;;;;;;12.59;52.92;98049.75;5115772;27;42139;-81
2022/02/17 14:39:05;;;;;;;3.73;0.67;;;;;;;12.41;53.49;98035.34;5133105;27;39097;-82
2022/02/17 14:41:32;;;;;;;1.80;1.27;;;;;;;12.33;54.48;98064.34;5116420;27;40327;-83
2022/02/17 14:44:01;;;;;;;7.50;1.10;;;;;;;12.05;54.46;98044.53;5134176;27;42983;-82
2022/02/17 14:46:29;;;;;;;1.87;0.87;;;;;;;12.05;54.14;98064.91;5114684;27;41790;-82
2022/02/17 14:48:56;;;;;;;2.20;0.70;;;;;;;12.43;54.03;98070.56;5133761;27;40087;-81
2022/02/17 14:51:24;;;;;;;5.23;1.20;;;;;;;12.59;53.38;98076.31;5132950;27;41466;-79
2022/02/17 14:53:51;;;;;;;3.27;0.90;;;;;;;12.65;53.19;98087.38;5132067;27;41624;-81
2022/02/17 14:56:19;;;;;;;2.83;0.90;;;;;;;12.67;53.30;98094.25;5115814;27;41516;-85
2022/02/17 14:58:46;;;;;;;1.37;0.80;;;;;;;12.49;53.20;98070.06;5133294;27;39828;-80
2022/02/17 15:01:15;;;;;;;4.30;1.00;;;;;;;12.41;53.61;98093.75;5115466;27;40798;-81
2022/02/17 15:03:43;;;;;;;1.73;1.10;;;;;;;12.26;54.77;98075.56;5132121;27;43776;-82
2022/02/17 15:06:10;;;;;;;1.67;1.43;;;;;;;12.33;54.78;98080.28;5132542;27;42200;-81
2022/02/17 15:08:38;;;;;;;2.80;1.00;;;;;;;12.13;54.93;98073.91;5132286;27;39546;-81
2022/02/17 15:11:06;;;;;;;5.50;1.10;;;;;;;12.14;55.50;98106.63;5115708;27;41043;-83
2022/02/17 15:13:39;;;;;;;5.00;1.23;;;;;;;11.96;56.96;98118.72;5129889;27;43787;-79
2022/02/17 15:16:10;;;;;;;6.73;1.40;;;;;;;11.60;59.32;98110.03;5111355;28;41398;-81
2022/02/17 15:18:39;;;;;;;3.43;0.67;;;;;;;11.41;61.56;98099.16;5094681;28;38765;-81
2022/02/17 15:21:08;;;;;;;2.73;1.00;;;;;;;11.21;62.83;98107.81;5111259;28;42450;-81
2022/02/17 15:23:35;;;;;;;4.03;1.30;;;;;;;11.07;64.80;98103.56;5112752;28;42276;-81
2022/02/17 15:26:03;;;;;;;4.07;0.97;;;;;;;10.97;65.11;98103.44;5132190;27;41910;-86
2022/02/17 15:28:31;;;;;;;2.17;0.87;;;;;;;10.87;65.20;98106.91;5132822;27;40654;-84
2022/02/17 15:30:58;;;;;;;1.70;0.63;;;;;;;10.62;65.03;98082.28;5115344;27;43739;-82
2022/02/17 15:33:26;;;;;;;1.37;0.80;;;;;;;10.73;64.79;98105.28;5132418;27;43029;-84
2022/02/17 15:35:55;;;;;;;1.67;0.80;;;;;;;10.76;64.88;98099.75;5114111;27;42697;-84
2022/02/17 15:38:22;;;;;;;1.20;0.70;;;;;;;10.95;64.83;98108.00;5133985;27;40599;-85
2022/02/17 15:40:52;;;;;;;4.27;1.00;;;;;;;11.10;64.23;98117.44;5115444;27;41084;-84
2022/02/17 15:43:20;;;;;;;2.73;0.60;;;;;;;11.25;63.72;98122.53;5114664;27;42080;-83
2022/02/17 15:45:48;;;;;;;3.67;0.70;;;;;;;11.18;63.15;98110.69;5115374;27;42006;-81
2022/02/17 15:48:15;;;;;;;3.23;0.80;;;;;;;11.08;63.92;98100.81;5132774;27;39924;-84
2022/02/17 15:50:45;;;;;;;1.87;0.70;;;;;;;10.94;63.87;98095.72;5113915;27;42121;-79
2022/02/17 15:53:14;;;;;;;3.53;0.90;;;;;;;10.58;64.07;98064.06;5131513;27;41416;-82
2022/02/17 15:55:41;;;;;;;2.07;0.90;;;;;;;10.68;63.86;98118.03;5131799;27;43164;-79
2022/02/17 15:58:09;;;;;;;1.57;1.00;;;;;;;10.59;64.61;98114.25;5133709;27;40320;-83
2022/02/17 16:00:36;;;;;;;5.20;0.87;;;;;;;10.50;64.72;98119.41;5133067;27;41477;-81
2022/02/17 16:03:04;;;;;;;3.47;1.03;;;;;;;10.41;65.47;98113.81;5130331;27;41899;-80
2022/02/17 16:05:32;;;;;;;5.13;1.00;;;;;;;10.35;65.66;98098.41;5132283;27;42557;-80
2022/02/17 16:07:59;;;;;;;3.27;1.37;;;;;;;10.44;66.03;98120.69;5113865;27;39099;-83
2022/02/17 16:10:29;;;;;;;2.33;0.70;;;;;;;10.46;65.65;98139.09;5114408;27;40344;-85
2022/02/17 16:12:57;;;;;;;4.10;0.77;;;;;;;10.36;65.63;98171.56;5131427;27;43498;-80
2022/02/17 16:15:24;;;;;;;1.97;0.80;;;;;;;10.23;65.33;98177.84;5132834;27;42138;-81
2022/02/17 16:17:52;;;;;;;2.27;0.80;;;;;;;10.00;67.28;98160.94;5113178;27;39609;-83
2022/02/17 16:20:19;;;;;;;4.03;0.97;;;;;;;9.95;69.90;98176.28;5132503;27;42701;-81
2022/02/17 16:22:46;;;;;;;2.10;0.60;;;;;;;9.88;72.28;98197.03;5130528;27;43045;-82
2022/02/17 16:25:14;;;;;;;0.80;0.80;;;;;;;9.71;74.23;98179.69;5131815;27;42170;-83
2022/02/17 16:27:45;;;;;;;5.13;0.80;;;;;;;9.77;75.18;98204.03;5113847;27;40351;-87
2022/02/17 16:30:13;;;;;;;1.93;1.00;;;;;;;9.59;75.59;98196.41;5130906;27;40824;-84
2022/02/17 16:32:40;;;;;;;4.27;0.90;;;;;;;9.62;74.71;98221.78;5130701;27;43006;-85
2022/02/17 16:35:09;;;;;;;2.47;0.83;;;;;;;9.50;75.90;98220.84;5131498;27;42054;-81
2022/02/17 16:37:37;;;;;;;2.63;1.07;;;;;;;9.24;75.64;98211.19;5130347;27;40605;-84
2022/02/17 16:40:06;;;;;;;3.03;0.60;;;;;;;9.18;76.00;98227.41;5111537;28;41762;-81
2022/02/17 16:42:34;;;;;;;3.37;0.80;;;;;;;9.00;76.68;98238.28;5121651;27;43637;-82
2022/02/17 16:45:04;;;;;;;3.90;1.07;;;;;;;8.87;77.06;98245.31;5092884;28;41007;-84
2022/02/17 16:47:31;;;;;;;0.67;0.67;;;;;;;8.76;77.10;98241.69;5121114;27;39240;-81
2022/02/17 16:49:59;;;;;;;3.97;0.80;;;;;;;8.60;77.88;98236.53;5132228;27;41938;-79
2022/02/17 16:52:26;;;;;;;2.27;0.57;;;;;;;8.49;78.53;98244.28;5129808;27;41611;-81
2022/02/17 16:54:54;;;;;;;4.27;0.70;;;;;;;8.42;77.85;98258.81;5132591;27;42282;-85
2022/02/17 16:57:21;;;;;;;0.70;0.70;;;;;;;8.24;77.76;98235.25;5131426;27;40018;-82
2022/02/17 16:59:49;;;;;;;0.93;0.60;;;;;;;8.30;78.11;98260.38;5110922;27;40558;-82
2022/02/17 17:02:18;;;;;;;2.23;0.80;;;;;;;8.11;77.93;98260.72;5112820;27;44008;-83
2022/02/17 17:04:46;;;;;;;1.00;0.70;;;;;;;8.17;77.50;98291.97;5128791;27;42165;-82
2022/02/17 17:07:14;;;;;;;2.13;0.83;;;;;;;8.00;77.21;98281.63;5131102;27;41061;-77
2022/02/17 17:09:41;;;;;;;2.23;0.70;;;;;;;7.80;77.14;98245.06;5127857;27;41667;-80
2022/02/17 17:12:09;;;;;;;3.93;0.73;;;;;;;8.04;77.36;98298.06;5115284;27;41673;-80
2022/02/17 17:14:38;;;;;;;4.53;1.47;;;;;;;7.98;77.09;98296.69;5121399;27;42205;-87
2022/02/17 17:17:06;;;;;;;0.87;0.70;;;;;;;7.90;77.08;98298.94;5113498;28;39890;-82
2022/02/17 17:19:35;;;;;;;2.53;0.70;;;;;;;7.95;76.53;98304.75;5122116;27;40341;-81
2022/02/17 17:22:03;;;;;;;7.10;1.00;;;;;;;7.99;76.37;98318.63;5133309;27;41864;-81
2022/02/17 17:24:32;;;;;;;1.27;0.83;;;;;;;7.98;76.05;98323.03;5134844;27;42460;-87
2022/02/17 17:26:59;;;;;;;4.70;1.07;;;;;;;7.96;76.04;98324.06;5133380;27;40533;-87
2022/02/17 17:29:27;;;;;;;1.83;0.47;;;;;;;7.95;76.25;98331.13;5134625;27;40841;-77
2022/02/17 17:31:55;;;;;;;0.97;0.67;;;;;;;7.94;76.37;98342.63;5128122;27;42527;-78
2022/02/17 17:34:22;;;;;;;2.23;1.00;;;;;;;7.84;76.33;98318.59;5123993;27;42317;-81
2022/02/17 17:36:51;;;;;;;2.63;0.80;;;;;;;7.93;76.35;98333.00;5104182;27;38630;-83
2022/02/17 17:39:19;;;;;;;2.20;0.80;;;;;;;7.83;76.68;98330.09;5123672;27;40790;-83
2022/02/17 17:41:46;;;;;;;1.87;0.67;;;;;;;7.94;76.49;98347.88;5115162;27;41801;-83
2022/02/17 17:44:15;;;;;;;3.43;1.00;;;;;;;8.02;75.91;98358.84;5126109;27;40977;-80
2022/02/17 17:46:45;;;;;;;1.50;1.00;;;;;;;8.04;75.82;98362.22;5115352;27;38721;-80
2022/02/17 17:49:15;;;;;;;1.13;0.63;;;;;;;8.06;75.60;98378.78;5132982;27;41318;-81
2022/02/17 17:51:43;;;;;;;4.23;0.80;;;;;;;8.07;75.45;98384.91;5115678;27;43606;-82
2022/02/17 17:54:13;;;;;;;5.07;0.90;;;;;;;8.04;75.24;98374.53;5116385;27;41258;-82
2022/02/17 17:56:40;;;;;;;2.70;0.90;;;;;;;8.09;75.43;98378.63;5129429;27;39838;-85
2022/02/17 17:59:07;;;;;;;0.73;0.67;;;;;;;8.29;74.82;98402.00;5134077;27;41665;-78
2022/02/17 18:01:35;;;;;;;0.57;0.57;;;;;;;8.37;74.78;98412.13;5120925;27;43397;-79
2022/02/17 18:04:02;;;;;;;2.83;0.60;;;;;;;8.37;74.30;98398.09;5116549;27;40986;-80
2022/02/17 18:06:30;;;;;;;1.83;0.90;;;;;;;8.33;74.69;98384.22;5111955;27;41387;-83
2022/02/17 18:08:57;;;;;;;2.90;0.70;;;;;;;8.59;75.08;98424.88;5114515;27;41798;-82
2022/02/17 18:11:26;;;;;;;2.40;0.83;;;;;;;8.62;75.07;98428.16;5113787;27;43055;-78
2022/02/17 18:13:53;;;;;;;1.60;0.40;;;;;;;8.61;74.50;98423.81;5115476;27;41052;-80
2022/02/17 18:16:20;;;;;;;7.83;1.13;;;;;;;8.61;74.19;98417.69;5129263;27;41575;-80
2022/02/17 18:18:49;;;;;;;0.93;0.80;;;;;;;8.67;74.94;98427.88;5130759;27;40793;-79
2022/02/17 18:21:19;;;;;;;1.83;0.70;;;;;;;8.60;75.21;98413.38;5131926;27;42827;-77
2022/02/17 18:23:46;;;;;;;6.17;0.90;;;;;;;8.57;75.80;98429.38;5113340;27;41607;-77
2022/02/17 18:26:15;;;;;;;2.03;0.60;;;;;;;8.60;75.94;98437.97;5130304;27;41921;-85
2022/02/17 18:28:44;;;;;;;1.33;0.70;;;;;;;8.60;75.86;98440.59;5111503;27;41750;-82
2022/02/17 18:31:12;;;;;;;1.00;0.83;;;;;;;8.49;75.27;98445.69;5130925;27;41391;-82
2022/02/17 18:33:46;;;;;;;2.50;0.77;;;;;;;8.54;76.46;98456.81;5128840;27;43231;-81
2022/02/17 18:36:13;;;;;;;2.73;1.27;;;;;;;8.49;75.75;98455.41;5115234;27;39204;-79
2022/02/17 18:38:41;;;;;;;3.27;0.80;;;;;;;8.36;75.82;98435.97;5126092;27;40966;-82
2022/02/17 18:41:09;;;;;;;2.47;0.70;;;;;;;8.20;75.19;98428.09;5110250;27;41853;-83
2022/02/17 18:43:36;;;;;;;2.37;0.87;;;;;;;8.19;75.38;98426.38;5131886;27;42851;-79
2022/02/17 18:46:06;;;;;;;4.37;1.07;;;;;;;8.47;73.62;98473.09;5110026;27;39054;-80
2022/02/17 18:48:33;;;;;;;5.77;1.07;;;;;;;8.55;73.19;98471.69;5130394;27;41724;-80
2022/02/17 18:51:01;;;;;;;3.83;1.60;;;;;;;8.56;72.15;98465.47;5131102;27;43573;-79
2022/02/17 18:53:28;;;;;;;5.20;1.87;;;;;;;8.68;71.71;98460.38;5113779;27;41142;-78
2022/02/17 18:55:56;;;;;;;2.77;1.30;;;;;;;8.53;71.85;98439.25;5111964;28;38731;-82
2022/02/17 18:58:25;;;;;;;4.03;1.20;;;;;;;8.77;70.48;98473.91;5132708;27;42349;-78
2022/02/17 19:00:52;;;;;;;1.27;0.90;;;;;;;8.97;70.46;98505.19;5131702;27;41397;-81
2022/02/17 19:03:21;;;;;;;3.03;0.97;;;;;;;8.96;69.62;98507.94;5132225;27;42134;-79
2022/02/17 19:05:50;;;;;;;4.30;1.73;;;;;;;8.91;69.38;98504.72;5126572;27;39923;-78
2022/02/17 19:08:19;;;;;;;4.63;1.33;;;;;;;8.93;68.81;98516.03;5113439;27;40571;-79
2022/02/17 19:10:47;;;;;;;6.90;0.90;;;;;;;8.92;68.18;98516.97;5131901;27;43127;-78
2022/02/17 19:13:14;;;;;;;2.70;1.13;;;;;;;9.07;67.85;98525.75;5113050;27;41106;-78
2022/02/17 19:15:42;;;;;;;2.83;1.40;;;;;;;8.98;67.59;98511.34;5129509;27;39911;-80
2022/02/17 19:18:09;;;;;;;3.60;1.00;;;;;;;9.06;66.97;98524.91;5114665;27;40723;-81
2022/02/17 19:20:38;;;;;;;6.50;1.30;;;;;;;9.10;66.48;98520.28;5125215;27;42386;-79
2022/02/17 19:23:06;;;;;;;2.50;1.00;;;;;;;9.11;65.94;98514.91;5110761;28;42649;-84
2022/02/17 19:25:34;;;;;;;4.47;0.93;;;;;;;9.25;65.64;98545.78;5107837;27;39641;-84
2022/02/17 19:28:03;;;;;;;1.77;1.10;;;;;;;9.32;65.22;98549.72;5126817;27;41864;-81
2022/02/17 19:30:32;;;;;;;3.07;1.00;;;;;;;9.38;65.36;98561.72;5115812;27;42101;-80
2022/02/17 19:33:01;;;;;;;3.30;1.13;;;;;;;9.25;64.22;98540.47;5114552;27;42181;-83
2022/02/17 19:35:29;;;;;;;2.00;1.13;;;;;;;9.38;64.77;98562.56;5102210;28;38841;-79
2022/02/17 19:37:58;;;;;;;8.53;1.00;;;;;;;9.29;63.98;98565.75;5115391;27;42633;-78
2022/02/17 19:40:28;;;;;;;2.83;0.90;;;;;;;9.39;63.95;98553.69;5128017;27;43086;-79
2022/02/17 19:42:55;;;;;;;6.10;1.00;;;;;;;9.37;63.65;98550.28;5126770;27;41988;-80
2022/02/17 19:45:24;;;;;;;3.20;1.07;;;;;;;9.40;63.34;98560.66;5094299;27;39250;-80
2022/02/17 19:47:51;;;;;;;1.03;0.83;;;;;;;9.46;61.52;98576.13;5131110;27;41508;-81
2022/02/17 19:50:19;;;;;;;5.33;1.03;;;;;;;9.38;60.68;98567.84;5111465;27;41617;-80
2022/02/17 19:52:46;;;;;;;3.67;1.60;;;;;;;9.32;60.13;98576.13;5125077;27;42240;-77
2022/02/17 19:55:15;;;;;;;6.40;1.13;;;;;;;9.38;60.32;98578.41;5135323;27;39879;-78
2022/02/17 19:57:43;;;;;;;1.07;0.93;;;;;;;9.44;59.29;98609.75;5105052;28;42134;-80
2022/02/17 20:00:13;;;;;;;4.43;1.03;;;;;;;9.47;58.62;98606.91;5115782;27;43063;-79
2022/02/17 20:02:40;;;;;;;5.53;1.00;;;;;;;9.49;58.79;98618.25;5138506;27;42752;-83
2022/02/17 20:05:08;;;;;;;4.10;1.13;;;;;;;9.42;57.86;98627.47;5118862;27;40547;-80
2022/02/17 20:07:37;;;;;;;4.30;1.13;;;;;;;9.37;56.93;98613.72;5105461;28;40645;-79
2022/02/17 20:10:05;;;;;;;1.17;0.73;;;;;;;9.27;57.11;98602.03;5110935;27;43133;-80
2022/02/17 20:12:36;;;;;;;1.17;0.60;;;;;;;9.56;57.86;98632.78;5130931;27;42306;-81
2022/02/17 20:15:06;;;;;;;3.93;0.93;;;;;;;9.26;57.66;98580.03;5129544;27;40863;-81
2022/02/17 20:17:34;;;;;;;2.43;1.03;;;;;;;9.56;58.42;98629.28;5130668;27;41945;-80
2022/02/17 20:20:02;;;;;;;3.77;0.80;;;;;;;9.57;58.31;98637.13;5130870;27;42685;-83
2022/02/17 20:22:29;;;;;;;1.77;0.73;;;;;;;9.46;57.12;98633.44;5108811;27;41201;-81
2022/02/17 20:24:57;;;;;;;1.43;1.07;;;;;;;9.20;58.34;98590.09;5106440;28;39572;-79
2022/02/17 20:27:24;;;;;;;1.63;0.87;;;;;;;9.44;57.44;98641.44;5122875;27;42741;-79
2022/02/17 20:29:53;;;;;;;0.73;0.63;;;;;;;9.57;57.05;98663.56;5112549;27;45122;-78
2022/02/17 20:32:21;;;;;;;3.00;0.83;;;;;;;9.21;58.18;98602.38;5131776;27;43348;-80
2022/02/17 20:34:48;;;;;;;3.97;1.50;;;;;;;9.52;57.98;98648.94;5125438;27;39845;-81
2022/02/17 20:37:16;;;;;;;1.33;0.87;;;;;;;9.53;57.81;98656.75;5121449;27;43342;-85
2022/02/17 20:39:44;;;;;;;2.23;0.93;;;;;;;9.54;57.82;98663.72;5100902;28;41746;-81